Waldo, Wisconsin
Current Conditions -  °F | °C
As of 3:53 PM on Thursday 27 Nov 2014 (Local Time) from KSBM Reporting Station
Clear Clear  
Wind Chill:   Ceiling: Unl
Heat Index: 16°   Visibility: 10mi
Dew Point:   Wind: 9mph
Humidity: 65%   Direction: 320°NW
Pressure: 30.36"   Gusts: NA
Location:  43.67°N, 87.95°W
Report Text: KSBM 272153Z AUTO 32008KT 10SM CLR M09/M14 A3036 RMK AO2 SLP294 T10891144
Loading
Personal Weather Stations






























Interactive Weather Map New forecast layout! Learn more

10-Day Weather Forecast

Advertisements
Track Severe Weather on mobile